createdAt,value
2023-01-30T00:00:37.072Z,1009.02
2023-01-30T00:01:37.054Z,1009.08
2023-01-30T00:02:37.052Z,1009.05
2023-01-30T00:03:37.363Z,1009.06
2023-01-30T00:04:37.062Z,1009.02
2023-01-30T00:05:37.025Z,1009.00
2023-01-30T00:06:37.028Z,1009.07
2023-01-30T00:07:37.022Z,1009.05
2023-01-30T00:08:37.011Z,1008.98
2023-01-30T00:09:37.005Z,1009.00
2023-01-30T00:10:36.998Z,1008.96
2023-01-30T00:11:36.997Z,1008.96
2023-01-30T00:12:36.987Z,1008.82
2023-01-30T00:13:36.975Z,1008.81
2023-01-30T00:14:36.978Z,1008.75
2023-01-30T00:15:36.963Z,1008.74
2023-01-30T00:16:37.131Z,1008.73
2023-01-30T00:17:36.953Z,1008.78
2023-01-30T00:18:36.954Z,1008.68
2023-01-30T00:19:36.945Z,1008.56
2023-01-30T00:20:36.939Z,1008.54
2023-01-30T00:21:36.930Z,1008.68
2023-01-30T00:22:36.930Z,1008.56
2023-01-30T00:23:36.941Z,1008.38
2023-01-30T00:24:37.051Z,1008.41
2023-01-30T00:25:37.146Z,1008.39
2023-01-30T00:26:36.925Z,1008.45
2023-01-30T00:27:36.899Z,1008.37
2023-01-30T00:28:36.890Z,1008.37
2023-01-30T00:29:36.881Z,1008.35
2023-01-30T00:30:36.898Z,1008.32
2023-01-30T00:31:36.980Z,1008.37
2023-01-30T00:32:36.875Z,1008.27
2023-01-30T00:33:36.868Z,1008.13
2023-01-30T00:34:36.856Z,1008.17
2023-01-30T00:35:36.857Z,1008.07
2023-01-30T00:36:36.910Z,1008.03
2023-01-30T00:37:36.885Z,1008.01
2023-01-30T00:38:36.837Z,1007.93
2023-01-30T00:39:36.827Z,1007.94
2023-01-30T00:40:36.825Z,1007.86
2023-01-30T00:41:36.812Z,1007.82
2023-01-30T00:42:36.814Z,1007.72
2023-01-30T00:43:36.815Z,1007.70
2023-01-30T00:44:36.807Z,1007.69
2023-01-30T00:45:36.835Z,1007.70
2023-01-30T00:46:36.781Z,1007.67
2023-01-30T00:47:36.788Z,1007.61
2023-01-30T00:48:36.781Z,1007.57
2023-01-30T00:49:36.767Z,1007.57
2023-01-30T00:50:36.771Z,1007.47
2023-01-30T00:51:36.761Z,1007.41
2023-01-30T00:52:36.756Z,1007.33
2023-01-30T00:53:36.748Z,1007.27
2023-01-30T00:54:36.743Z,1007.23
2023-01-30T00:55:36.742Z,1007.13
2023-01-30T00:56:36.731Z,1007.04
2023-01-30T00:57:36.746Z,1007.08
2023-01-30T00:58:36.726Z,1007.07
2023-01-30T00:59:36.714Z,1007.21
2023-01-30T01:00:36.712Z,1007.08
2023-01-30T01:01:36.739Z,1007.05
2023-01-30T01:02:36.744Z,1006.97
2023-01-30T01:03:36.696Z,1006.86
2023-01-30T01:04:36.680Z,1006.80
2023-01-30T01:05:36.677Z,1006.84
2023-01-30T01:06:36.667Z,1006.80
2023-01-30T01:07:36.659Z,1006.80
2023-01-30T01:08:36.680Z,1006.80
2023-01-30T01:09:36.648Z,1006.89
2023-01-30T01:10:36.648Z,1006.86
2023-01-30T01:11:36.650Z,1006.95
2023-01-30T01:12:36.644Z,1007.02
2023-01-30T01:13:36.623Z,1007.03
2023-01-30T01:14:36.635Z,1006.99
2023-01-30T01:15:36.623Z,1006.97
2023-01-30T01:16:36.652Z,1006.91
2023-01-30T01:17:36.599Z,1006.89
2023-01-30T01:18:36.595Z,1006.86
2023-01-30T01:19:36.597Z,1006.92
2023-01-30T01:20:36.594Z,1006.96
2023-01-30T01:21:36.577Z,1006.89
2023-01-30T01:22:36.579Z,1006.82
2023-01-30T01:23:36.585Z,1006.69
2023-01-30T01:24:36.562Z,1006.65
2023-01-30T01:25:36.556Z,1006.43
2023-01-30T01:26:36.577Z,1006.42
2023-01-30T01:27:36.540Z,1006.30
2023-01-30T01:28:36.553Z,1006.18
2023-01-30T01:29:36.527Z,1006.11
2023-01-30T01:30:36.522Z,1006.15
2023-01-30T01:31:36.550Z,1006.10
2023-01-30T01:32:36.533Z,1006.12
2023-01-30T01:33:36.503Z,1006.25
2023-01-30T01:34:36.501Z,1006.27
2023-01-30T01:35:36.497Z,1006.11
2023-01-30T01:36:52.684Z,1006.13
2023-01-30T01:37:36.480Z,1006.07
2023-01-30T01:38:36.471Z,1006.16
2023-01-30T01:39:36.477Z,1006.13
2023-01-30T01:40:36.464Z,1006.05
2023-01-30T01:41:36.460Z,1006.22
2023-01-30T01:42:36.457Z,1006.23
2023-01-30T01:43:36.455Z,1006.08
2023-01-30T01:44:36.449Z,1006.01
2023-01-30T01:45:36.482Z,1006.19
2023-01-30T01:46:36.423Z,1006.21
2023-01-30T01:47:36.441Z,1006.20
2023-01-30T01:48:36.413Z,1006.24
2023-01-30T01:49:36.425Z,1006.24
2023-01-30T01:50:36.399Z,1006.31
2023-01-30T01:51:36.402Z,1006.33
2023-01-30T01:52:36.390Z,1006.40
2023-01-30T01:53:36.397Z,1006.33
2023-01-30T01:54:36.383Z,1006.40
2023-01-30T01:55:36.383Z,1006.29
2023-01-30T01:56:36.368Z,1006.20
2023-01-30T01:57:36.367Z,1006.24
2023-01-30T01:58:36.359Z,1006.15
2023-01-30T01:59:36.362Z,1006.21
2023-01-30T02:00:36.346Z,1006.28
2023-01-30T02:01:36.342Z,1006.12
2023-01-30T02:02:36.380Z,1006.00
2023-01-30T02:03:36.335Z,1006.00
2023-01-30T02:04:36.322Z,1006.00
2023-01-30T02:05:36.319Z,1005.89
2023-01-30T02:06:36.315Z,1005.82
2023-01-30T02:07:36.611Z,1005.81
2023-01-30T02:08:36.306Z,1005.93
2023-01-30T02:09:36.301Z,1005.71
2023-01-30T02:10:36.292Z,1005.66
2023-01-30T02:11:36.281Z,1005.59
2023-01-30T02:12:36.273Z,1005.56
2023-01-30T02:13:36.269Z,1005.64
2023-01-30T02:14:36.263Z,1005.42
2023-01-30T02:15:36.264Z,1005.44
2023-01-30T02:16:36.247Z,1005.30
2023-01-30T02:17:36.336Z,1005.32
2023-01-30T02:18:36.239Z,1005.36
2023-01-30T02:19:36.234Z,1005.27
2023-01-30T02:20:36.239Z,1005.34
2023-01-30T02:21:36.238Z,1005.35
2023-01-30T02:22:36.225Z,1005.21
2023-01-30T02:23:36.215Z,1005.25
2023-01-30T02:24:36.201Z,1005.09
2023-01-30T02:25:36.202Z,1005.10
2023-01-30T02:26:36.242Z,1005.03
2023-01-30T02:27:36.191Z,1005.05
2023-01-30T02:28:36.182Z,1005.05
2023-01-30T02:29:36.178Z,1005.15
2023-01-30T02:30:36.267Z,1004.87
2023-01-30T02:31:36.336Z,1004.77
2023-01-30T02:32:36.158Z,1004.78
2023-01-30T02:33:36.155Z,1004.74
2023-01-30T02:34:36.142Z,1004.74
2023-01-30T02:35:36.146Z,1004.82
2023-01-30T02:36:36.130Z,1004.67
2023-01-30T02:37:36.123Z,1004.79
2023-01-30T02:38:36.120Z,1004.72
2023-01-30T02:39:36.111Z,1004.73
2023-01-30T02:40:36.104Z,1004.74
2023-01-30T02:41:36.103Z,1004.74
2023-01-30T02:42:36.095Z,1004.78
2023-01-30T02:43:36.093Z,1004.75
2023-01-30T02:44:36.079Z,1004.86
2023-01-30T02:45:36.092Z,1004.87
2023-01-30T02:46:36.063Z,1004.81
2023-01-30T02:47:36.062Z,1004.77
2023-01-30T02:48:36.053Z,1004.73
2023-01-30T02:49:36.052Z,1004.71
2023-01-30T02:50:36.052Z,1004.82
2023-01-30T02:51:36.043Z,1004.69
2023-01-30T02:52:36.027Z,1004.72
2023-01-30T02:53:36.028Z,1004.58
2023-01-30T02:54:36.022Z,1004.54
2023-01-30T02:55:36.035Z,1004.48
2023-01-30T02:56:36.003Z,1004.52
2023-01-30T02:57:36.008Z,1004.50
2023-01-30T02:58:35.989Z,1004.48
2023-01-30T02:59:35.992Z,1004.37
2023-01-30T03:00:35.976Z,1004.49
2023-01-30T03:01:36.028Z,1004.28
2023-01-30T03:02:36.027Z,1004.35
2023-01-30T03:03:35.971Z,1004.23
2023-01-30T03:04:35.957Z,1004.20
2023-01-30T03:05:35.973Z,1004.28
2023-01-30T03:06:35.937Z,1004.16
2023-01-30T03:07:35.959Z,1004.14
2023-01-30T03:08:35.938Z,1004.22
2023-01-30T03:09:35.926Z,1004.11
2023-01-30T03:10:35.915Z,1004.11
2023-01-30T03:11:35.908Z,1004.10
2023-01-30T03:12:35.898Z,1004.10
2023-01-30T03:13:35.914Z,1004.17
2023-01-30T03:14:35.891Z,1004.07
2023-01-30T03:15:35.890Z,1004.03
2023-01-30T03:16:35.883Z,1004.03
2023-01-30T03:17:35.873Z,1003.91
2023-01-30T03:18:35.860Z,1004.00
2023-01-30T03:19:35.870Z,1003.92
2023-01-30T03:20:35.849Z,1003.97
2023-01-30T03:21:35.853Z,1004.02
2023-01-30T03:22:35.839Z,1004.00
2023-01-30T03:23:35.843Z,1004.03
2023-01-30T03:24:35.829Z,1003.94
2023-01-30T03:25:35.827Z,1003.89
2023-01-30T03:26:35.867Z,1003.87
2023-01-30T03:27:35.815Z,1003.88
2023-01-30T03:28:35.809Z,1003.89
2023-01-30T03:29:35.803Z,1003.93
2023-01-30T03:30:35.830Z,1003.95
2023-01-30T03:31:35.926Z,1003.88
2023-01-30T03:32:35.781Z,1003.74
2023-01-30T03:33:35.781Z,1003.92
2023-01-30T03:34:35.764Z,1003.80
2023-01-30T03:35:35.775Z,1003.79
2023-01-30T03:36:35.746Z,1003.80
2023-01-30T03:37:35.749Z,1003.81
2023-01-30T03:38:35.738Z,1003.81
2023-01-30T03:39:35.743Z,1003.70
2023-01-30T03:40:35.732Z,1003.83
2023-01-30T03:41:35.729Z,1003.76
2023-01-30T03:42:35.716Z,1003.75
2023-01-30T03:43:35.711Z,1003.84
2023-01-30T03:44:35.723Z,1003.78
2023-01-30T03:45:35.705Z,1003.82
2023-01-30T03:46:35.698Z,1003.81
2023-01-30T03:47:35.684Z,1003.79
2023-01-30T03:48:35.689Z,1003.84
2023-01-30T03:49:35.672Z,1003.87
2023-01-30T03:50:35.664Z,1003.74
2023-01-30T03:51:35.664Z,1003.61
2023-01-30T03:52:35.663Z,1003.62
2023-01-30T03:53:35.650Z,1003.57
2023-01-30T03:54:35.641Z,1003.60
2023-01-30T03:55:35.638Z,1003.43
2023-01-30T03:56:35.652Z,1003.51
2023-01-30T03:57:35.627Z,1003.45
2023-01-30T03:58:35.638Z,1003.49
2023-01-30T03:59:35.608Z,1003.47
2023-01-30T04:00:35.626Z,1003.48
2023-01-30T04:01:35.694Z,1003.43
2023-01-30T04:02:35.591Z,1003.31
2023-01-30T04:03:35.596Z,1003.36
2023-01-30T04:04:35.575Z,1003.31
2023-01-30T04:05:35.576Z,1003.31
2023-01-30T04:06:36.657Z,1003.40
2023-01-30T04:07:35.560Z,1003.31
2023-01-30T04:08:35.564Z,1003.26
2023-01-30T04:09:35.552Z,1003.34
2023-01-30T04:10:35.534Z,1003.25
2023-01-30T04:11:35.536Z,1003.31
2023-01-30T04:12:35.521Z,1003.22
2023-01-30T04:13:35.521Z,1003.22
2023-01-30T04:14:35.507Z,1003.23
2023-01-30T04:15:35.514Z,1003.20
2023-01-30T04:16:35.539Z,1003.14
2023-01-30T04:17:35.503Z,1003.07
2023-01-30T04:18:35.491Z,1003.06
2023-01-30T04:19:35.486Z,1003.05
2023-01-30T04:20:35.479Z,1003.00
2023-01-30T04:21:35.473Z,1002.96
2023-01-30T04:22:35.459Z,1002.98
2023-01-30T04:23:35.463Z,1002.87
2023-01-30T04:24:35.447Z,1002.87
2023-01-30T04:25:35.449Z,1002.92
2023-01-30T04:26:35.567Z,1002.89
2023-01-30T04:27:35.757Z,1002.87
2023-01-30T04:28:35.424Z,1002.92
2023-01-30T04:29:35.417Z,1002.88
2023-01-30T04:30:35.506Z,1002.89
2023-01-30T04:31:35.510Z,1002.95
2023-01-30T04:32:35.424Z,1002.81
2023-01-30T04:33:35.453Z,1002.92
2023-01-30T04:34:35.395Z,1002.82
2023-01-30T04:35:35.382Z,1002.89
2023-01-30T04:36:35.364Z,1002.87
2023-01-30T04:37:35.384Z,1002.86
2023-01-30T04:38:35.359Z,1002.83
2023-01-30T04:39:35.364Z,1002.69
2023-01-30T04:40:35.343Z,1002.76
2023-01-30T04:41:35.348Z,1002.74
2023-01-30T04:42:35.340Z,1002.72
2023-01-30T04:43:35.323Z,1002.67
2023-01-30T04:44:35.322Z,1002.69
2023-01-30T04:45:35.314Z,1002.63
2023-01-30T04:46:35.305Z,1002.64
2023-01-30T04:47:35.360Z,1002.58
2023-01-30T04:48:35.318Z,1002.60
2023-01-30T04:49:35.288Z,1002.60
2023-01-30T04:50:35.278Z,1002.60
2023-01-30T04:51:35.291Z,1002.63
2023-01-30T04:52:35.282Z,1002.64
2023-01-30T04:53:35.268Z,1002.53
2023-01-30T04:54:35.254Z,1002.50
2023-01-30T04:55:35.247Z,1002.49
2023-01-30T04:56:35.245Z,1002.57
2023-01-30T04:57:35.241Z,1002.46
2023-01-30T04:58:35.232Z,1002.45
2023-01-30T04:59:35.222Z,1002.39
2023-01-30T05:00:35.238Z,1002.37
2023-01-30T05:01:35.285Z,1002.39
2023-01-30T05:02:35.219Z,1002.41
2023-01-30T05:03:35.203Z,1002.40
2023-01-30T05:04:35.211Z,1002.44
2023-01-30T05:05:35.195Z,1002.37
2023-01-30T05:06:35.176Z,1002.30
2023-01-30T05:07:35.177Z,1002.32
2023-01-30T05:08:35.164Z,1002.34
2023-01-30T05:09:35.165Z,1002.23
2023-01-30T05:10:35.159Z,1002.24
2023-01-30T05:11:35.153Z,1002.17
2023-01-30T05:12:35.154Z,1002.16
2023-01-30T05:13:35.139Z,1002.16
2023-01-30T05:14:35.125Z,1002.18
2023-01-30T05:15:35.137Z,1002.15
2023-01-30T05:16:35.116Z,1002.09
2023-01-30T05:17:35.177Z,1002.10
2023-01-30T05:18:35.104Z,1002.06
2023-01-30T05:19:35.103Z,1002.10
2023-01-30T05:20:35.119Z,1002.05
2023-01-30T05:21:35.095Z,1002.04
2023-01-30T05:22:35.076Z,1001.90
2023-01-30T05:23:35.076Z,1002.03
2023-01-30T05:24:35.066Z,1001.95
2023-01-30T05:25:35.065Z,1001.96
2023-01-30T05:26:35.093Z,1001.83
2023-01-30T05:27:35.047Z,1001.89
2023-01-30T05:28:35.036Z,1001.88
2023-01-30T05:29:35.036Z,1001.88
2023-01-30T05:30:35.049Z,1001.89
2023-01-30T05:31:35.035Z,1001.89
2023-01-30T05:32:35.012Z,1001.88
2023-01-30T05:33:35.018Z,1001.92
2023-01-30T05:34:35.049Z,1001.85
2023-01-30T05:35:34.997Z,1001.86
2023-01-30T05:36:35.086Z,1001.79
2023-01-30T05:37:34.980Z,1001.81
2023-01-30T05:38:34.974Z,1001.81
2023-01-30T05:39:34.979Z,1001.85
2023-01-30T05:40:34.964Z,1001.89
2023-01-30T05:41:34.954Z,1001.87
2023-01-30T05:42:34.947Z,1001.81
2023-01-30T05:43:34.957Z,1001.77
2023-01-30T05:44:34.955Z,1001.69
2023-01-30T05:45:34.937Z,1001.72
2023-01-30T05:46:34.961Z,1001.76
2023-01-30T05:47:34.926Z,1001.76
2023-01-30T05:48:34.917Z,1001.73
2023-01-30T05:49:34.898Z,1001.78
2023-01-30T05:50:34.904Z,1001.75
2023-01-30T05:51:34.896Z,1001.77
2023-01-30T05:52:34.955Z,1001.68
2023-01-30T05:53:34.901Z,1001.50
2023-01-30T05:54:34.913Z,1001.58
2023-01-30T05:55:34.865Z,1001.54
2023-01-30T05:56:34.861Z,1001.56
2023-01-30T05:57:34.860Z,1001.55
2023-01-30T05:58:34.853Z,1001.46
2023-01-30T05:59:34.835Z,1001.37
2023-01-30T06:00:34.838Z,1001.40
2023-01-30T06:01:34.824Z,1001.40
2023-01-30T06:02:34.876Z,1001.41
2023-01-30T06:03:34.843Z,1001.38
2023-01-30T06:04:34.816Z,1001.36
2023-01-30T06:05:34.802Z,1001.36
2023-01-30T06:06:34.797Z,1001.33
2023-01-30T06:07:34.795Z,1001.38
2023-01-30T06:08:35.131Z,1001.35
2023-01-30T06:09:34.781Z,1001.41
2023-01-30T06:10:34.771Z,1001.47
2023-01-30T06:11:34.766Z,1001.37
2023-01-30T06:12:34.759Z,1001.39
2023-01-30T06:13:34.787Z,1001.38
2023-01-30T06:14:34.748Z,1001.42
2023-01-30T06:15:34.741Z,1001.42
2023-01-30T06:16:34.822Z,1001.40
2023-01-30T06:17:34.721Z,1001.39
2023-01-30T06:18:34.727Z,1001.39
2023-01-30T06:19:34.708Z,1001.42
2023-01-30T06:20:34.711Z,1001.33
2023-01-30T06:21:34.705Z,1001.33
2023-01-30T06:22:34.705Z,1001.36
2023-01-30T06:23:34.693Z,1001.34
2023-01-30T06:24:34.715Z,1001.35
2023-01-30T06:25:34.679Z,1001.32
2023-01-30T06:26:34.752Z,1001.34
2023-01-30T06:27:34.657Z,1001.44
2023-01-30T06:28:34.666Z,1001.37
2023-01-30T06:29:34.657Z,1001.32
2023-01-30T06:30:34.724Z,1001.25
2023-01-30T06:31:34.730Z,1001.37
2023-01-30T06:32:34.644Z,1001.28
2023-01-30T06:33:34.623Z,1001.33
2023-01-30T06:34:34.632Z,1001.33
2023-01-30T06:35:34.613Z,1001.29
2023-01-30T06:36:34.606Z,1001.33
2023-01-30T06:37:34.601Z,1001.34
2023-01-30T06:38:34.592Z,1001.37
2023-01-30T06:39:34.615Z,1001.41
2023-01-30T06:40:34.605Z,1001.40
2023-01-30T06:41:34.575Z,1001.43
2023-01-30T06:42:34.579Z,1001.46
2023-01-30T06:43:34.743Z,1001.35
2023-01-30T06:44:34.557Z,1001.40
2023-01-30T06:45:34.548Z,1001.36
2023-01-30T06:46:34.596Z,1001.32
2023-01-30T06:47:34.535Z,1001.37
2023-01-30T06:48:34.533Z,1001.33
2023-01-30T06:49:34.519Z,1001.33
2023-01-30T06:50:34.521Z,1001.29
2023-01-30T06:51:34.509Z,1001.32
2023-01-30T06:52:34.513Z,1001.32
2023-01-30T06:53:34.495Z,1001.30
2023-01-30T06:54:34.507Z,1001.27
2023-01-30T06:55:34.503Z,1001.30
2023-01-30T06:56:34.499Z,1001.27
2023-01-30T06:57:34.476Z,1001.20
2023-01-30T06:58:34.477Z,1001.25
2023-01-30T06:59:34.470Z,1001.17
2023-01-30T07:00:34.497Z,1001.21
2023-01-30T07:01:34.497Z,1001.16
2023-01-30T07:02:34.465Z,1001.13
2023-01-30T07:03:34.431Z,1001.16
2023-01-30T07:04:34.439Z,1001.13
2023-01-30T07:05:34.442Z,1001.11
2023-01-30T07:06:34.426Z,1001.03
2023-01-30T07:07:34.411Z,1001.02
2023-01-30T07:08:34.421Z,1001.01
2023-01-30T07:09:34.397Z,1001.08
2023-01-30T07:10:34.403Z,1001.03
2023-01-30T07:11:34.394Z,1000.99
2023-01-30T07:12:34.403Z,1000.97
2023-01-30T07:13:34.369Z,1000.96
2023-01-30T07:14:34.377Z,1001.04
2023-01-30T07:15:34.363Z,1001.00
2023-01-30T07:16:34.400Z,1000.98
2023-01-30T07:17:34.367Z,1000.96
2023-01-30T07:18:34.349Z,1000.98
2023-01-30T07:19:34.337Z,1000.90
2023-01-30T07:20:34.360Z,1000.93
2023-01-30T07:21:34.329Z,1000.87
2023-01-30T07:22:34.324Z,1000.99
2023-01-30T07:23:34.322Z,1000.84
2023-01-30T07:24:34.322Z,1000.90
2023-01-30T07:25:34.324Z,1000.77
2023-01-30T07:26:34.328Z,1000.84
2023-01-30T07:27:34.291Z,1000.84
2023-01-30T07:28:34.313Z,1000.77
2023-01-30T07:29:34.318Z,1000.78
2023-01-30T07:30:34.312Z,1000.75
2023-01-30T07:31:34.309Z,1000.75
2023-01-30T07:32:34.282Z,1000.80
2023-01-30T07:33:34.270Z,1000.75
2023-01-30T07:34:34.259Z,1000.78
2023-01-30T07:35:34.245Z,1000.82
2023-01-30T07:36:34.243Z,1000.87
2023-01-30T07:37:34.236Z,1000.82
2023-01-30T07:38:34.236Z,1000.84
2023-01-30T07:39:34.225Z,1000.87
2023-01-30T07:40:34.263Z,1000.77
2023-01-30T07:41:34.220Z,1000.80
2023-01-30T07:42:34.202Z,1000.76
2023-01-30T07:43:34.198Z,1000.79
2023-01-30T07:44:34.218Z,1000.73
2023-01-30T07:45:34.195Z,1000.75
2023-01-30T07:46:34.247Z,1000.77
2023-01-30T07:47:34.171Z,1000.78
2023-01-30T07:48:34.174Z,1000.81
2023-01-30T07:49:34.165Z,1000.87
2023-01-30T07:50:34.497Z,1000.87
2023-01-30T07:51:34.147Z,1000.90
2023-01-30T07:52:34.148Z,1000.90
2023-01-30T07:53:34.143Z,1000.88
2023-01-30T07:54:34.131Z,1000.86
2023-01-30T07:55:34.136Z,1000.94
2023-01-30T07:56:34.130Z,1000.94
2023-01-30T07:57:34.114Z,1000.99
2023-01-30T07:58:34.117Z,1000.95
2023-01-30T07:59:34.100Z,1000.97
2023-01-30T08:00:34.123Z,1000.97
2023-01-30T08:01:34.083Z,1001.00
2023-01-30T08:02:34.101Z,1001.00
2023-01-30T08:03:34.085Z,1001.06
2023-01-30T08:04:34.129Z,1001.04
2023-01-30T08:05:34.065Z,1001.04
2023-01-30T08:06:34.068Z,1001.01
2023-01-30T08:07:34.064Z,1001.08
2023-01-30T08:08:34.049Z,1001.02
2023-01-30T08:09:34.052Z,1001.02
2023-01-30T08:10:34.051Z,1001.08
2023-01-30T08:11:34.061Z,1000.98
2023-01-30T08:12:34.032Z,1001.07
2023-01-30T08:13:34.025Z,1001.04
2023-01-30T08:14:34.018Z,1001.02
2023-01-30T08:15:34.025Z,1001.01
2023-01-30T08:16:34.143Z,1001.07
2023-01-30T08:17:34.003Z,1001.03
2023-01-30T08:18:34.004Z,1001.02
2023-01-30T08:19:33.995Z,1001.03
2023-01-30T08:20:33.985Z,1000.97
2023-01-30T08:21:33.983Z,1001.00
2023-01-30T08:22:33.984Z,1000.98
2023-01-30T08:23:33.971Z,1000.96
2023-01-30T08:24:33.983Z,1001.05
2023-01-30T08:25:33.955Z,1000.99
2023-01-30T08:26:34.012Z,1001.00
2023-01-30T08:27:33.940Z,1001.03
2023-01-30T08:28:33.940Z,1001.05
2023-01-30T08:29:33.932Z,1000.98
2023-01-30T08:30:33.941Z,1000.94
2023-01-30T08:31:33.965Z,1000.87
2023-01-30T08:32:33.942Z,1000.87
2023-01-30T08:33:33.909Z,1000.89
2023-01-30T08:34:33.907Z,1000.83
2023-01-30T08:35:33.903Z,1000.87
2023-01-30T08:36:33.895Z,1000.83
2023-01-30T08:37:33.903Z,1000.86
2023-01-30T08:38:33.898Z,1000.81
2023-01-30T08:39:35.364Z,1000.74
2023-01-30T08:40:33.876Z,1000.74
2023-01-30T08:41:33.871Z,1000.69
2023-01-30T08:42:33.902Z,1000.69
2023-01-30T08:43:33.846Z,1000.65
2023-01-30T08:44:33.866Z,1000.78
2023-01-30T08:45:33.843Z,1000.84
2023-01-30T08:46:33.863Z,1000.96
2023-01-30T08:47:33.834Z,1000.95
2023-01-30T08:48:43.541Z,1000.89
2023-01-30T08:49:33.863Z,1000.91
2023-01-30T08:50:33.895Z,1000.91
2023-01-30T08:51:33.874Z,1000.96
2023-01-30T08:52:33.809Z,1000.89
2023-01-30T08:53:33.798Z,1000.96
2023-01-30T08:54:33.802Z,1000.92
2023-01-30T08:55:33.787Z,1000.88
2023-01-30T08:56:33.785Z,1000.89
2023-01-30T08:57:33.789Z,1000.89
2023-01-30T08:58:33.779Z,1000.94
2023-01-30T08:59:33.779Z,1000.86
2023-01-30T09:00:33.769Z,1000.85
2023-01-30T09:01:33.890Z,1000.85
2023-01-30T09:02:33.815Z,1000.91
2023-01-30T09:03:33.761Z,1000.88
2023-01-30T09:04:33.759Z,1000.98
2023-01-30T09:05:33.744Z,1000.90
2023-01-30T09:06:33.735Z,1000.87
2023-01-30T09:07:33.736Z,1000.88
2023-01-30T09:08:33.727Z,1000.86
2023-01-30T09:09:33.725Z,1000.92
2023-01-30T09:10:33.729Z,1000.90
2023-01-30T09:11:33.711Z,1000.89
2023-01-30T09:12:33.705Z,1000.86
2023-01-30T09:13:33.694Z,1000.94
2023-01-30T09:14:33.691Z,1000.93
2023-01-30T09:15:33.693Z,1000.99
2023-01-30T09:16:33.711Z,1000.85
2023-01-30T09:17:33.700Z,1000.86
2023-01-30T09:18:33.669Z,1000.87
2023-01-30T09:19:33.675Z,1000.91
2023-01-30T09:20:33.686Z,1000.86
2023-01-30T09:21:33.660Z,1000.92
2023-01-30T09:22:33.650Z,1000.91
2023-01-30T09:23:33.644Z,1001.01
2023-01-30T09:24:33.652Z,1001.06
2023-01-30T09:25:33.652Z,1001.00
2023-01-30T09:26:33.668Z,1000.97
2023-01-30T09:27:33.630Z,1000.91
2023-01-30T09:28:33.634Z,1000.91
2023-01-30T09:29:33.623Z,1000.92
2023-01-30T09:30:33.755Z,1000.94
2023-01-30T09:31:33.701Z,1001.02
2023-01-30T09:32:33.601Z,1001.05
2023-01-30T09:33:33.595Z,1001.01
2023-01-30T09:34:33.594Z,1001.04
2023-01-30T09:35:33.613Z,1001.03
2023-01-30T09:36:33.619Z,1001.10
2023-01-30T09:37:33.598Z,1001.04
2023-01-30T09:38:33.578Z,1001.08
2023-01-30T09:39:33.575Z,1001.08
2023-01-30T09:40:33.568Z,1001.09
2023-01-30T09:41:33.575Z,1001.06
2023-01-30T09:42:33.561Z,1001.08
2023-01-30T09:43:33.549Z,1001.06
2023-01-30T09:44:33.542Z,1001.09
2023-01-30T09:45:33.550Z,1001.10
2023-01-30T09:46:33.587Z,1001.01
2023-01-30T09:47:33.546Z,1000.99
2023-01-30T09:48:33.536Z,1001.01
2023-01-30T09:49:33.561Z,1001.09
2023-01-30T09:50:33.530Z,1001.02
2023-01-30T09:51:33.517Z,1001.06
2023-01-30T09:52:33.524Z,1001.01
2023-01-30T09:53:33.521Z,1000.99
2023-01-30T09:54:33.505Z,1001.02
2023-01-30T09:55:33.486Z,1000.96
2023-01-30T09:56:33.488Z,1000.92
2023-01-30T09:57:33.481Z,1000.91
2023-01-30T09:58:33.474Z,1000.92
2023-01-30T09:59:33.468Z,1000.88
2023-01-30T10:00:33.467Z,1000.91
2023-01-30T10:01:33.469Z,1000.83
2023-01-30T10:02:33.465Z,1000.89
2023-01-30T10:03:33.502Z,1000.82
2023-01-30T10:04:33.486Z,1000.94
2023-01-30T10:05:33.435Z,1000.91
2023-01-30T10:06:33.444Z,1000.86
2023-01-30T10:07:33.546Z,1000.89
2023-01-30T10:08:33.445Z,1000.90
2023-01-30T10:09:33.423Z,1000.90
2023-01-30T10:10:33.413Z,1000.91
2023-01-30T10:11:33.414Z,1000.83
2023-01-30T10:12:33.403Z,1000.90
2023-01-30T10:13:33.407Z,1000.90
2023-01-30T10:14:33.397Z,1000.85
2023-01-30T10:15:33.435Z,1000.83
2023-01-30T10:16:33.388Z,1000.84
2023-01-30T10:17:33.384Z,1000.84
2023-01-30T10:18:33.378Z,1000.90
2023-01-30T10:19:35.929Z,1000.87
2023-01-30T10:20:33.376Z,1000.83
2023-01-30T10:21:33.392Z,1000.83
2023-01-30T10:22:33.355Z,1000.79
2023-01-30T10:23:33.357Z,1000.80
2023-01-30T10:24:33.366Z,1000.87
2023-01-30T10:25:33.349Z,1000.76
2023-01-30T10:26:33.417Z,1000.83
2023-01-30T10:27:33.343Z,1000.87
2023-01-30T10:28:33.324Z,1000.87
2023-01-30T10:29:33.354Z,1000.92
2023-01-30T10:30:33.410Z,1000.89
2023-01-30T10:31:33.539Z,1000.86
2023-01-30T10:32:33.318Z,1000.84
2023-01-30T10:33:33.316Z,1000.81
2023-01-30T10:34:33.335Z,1000.81
2023-01-30T10:35:33.299Z,1000.77
2023-01-30T10:36:33.292Z,1000.82
2023-01-30T10:37:33.285Z,1000.76
2023-01-30T10:38:33.291Z,1000.76
2023-01-30T10:39:34.277Z,1000.69
2023-01-30T10:40:33.307Z,1000.75
2023-01-30T10:41:33.291Z,1000.83
2023-01-30T10:42:33.274Z,1000.78
2023-01-30T10:43:33.294Z,1000.79
2023-01-30T10:44:33.255Z,1000.74
2023-01-30T10:45:34.735Z,1000.76
2023-01-30T10:46:33.317Z,1000.71
2023-01-30T10:47:46.558Z,1000.68
2023-01-30T10:48:43.560Z,1000.65
2023-01-30T10:49:33.245Z,1000.65
2023-01-30T10:50:33.239Z,1000.74
2023-01-30T10:51:33.244Z,1000.71
2023-01-30T10:52:33.221Z,1000.68
2023-01-30T10:53:33.216Z,1000.74
2023-01-30T10:54:33.217Z,1000.73
2023-01-30T10:55:37.733Z,1000.61
2023-01-30T10:56:33.235Z,1000.59
2023-01-30T10:57:33.204Z,1000.59
2023-01-30T10:58:33.201Z,1000.64
2023-01-30T10:59:33.204Z,1000.61
2023-01-30T11:00:33.191Z,1000.60
2023-01-30T11:01:33.205Z,1000.61
2023-01-30T11:02:33.225Z,1000.65
2023-01-30T11:03:33.183Z,1000.61
2023-01-30T11:04:33.175Z,1000.63
2023-01-30T11:05:33.173Z,1000.66
2023-01-30T11:06:33.164Z,1000.66
2023-01-30T11:07:33.164Z,1000.62
2023-01-30T11:08:33.163Z,1000.58
2023-01-30T11:09:33.153Z,1000.52
2023-01-30T11:10:33.157Z,1000.49
2023-01-30T11:11:33.145Z,1000.43
2023-01-30T11:12:33.164Z,1000.43
2023-01-30T11:13:33.142Z,1000.43
2023-01-30T11:14:33.130Z,1000.46
2023-01-30T11:15:33.127Z,1000.49
2023-01-30T11:16:33.125Z,1000.46
2023-01-30T11:17:33.122Z,1000.49
2023-01-30T11:19:17.867Z,1000.54
2023-01-30T11:19:33.105Z,1000.39
2023-01-30T11:20:33.100Z,1000.35
2023-01-30T11:21:43.397Z,1000.38
2023-01-30T11:22:33.095Z,1000.34
2023-01-30T11:23:33.104Z,1000.26
2023-01-30T11:24:33.090Z,1000.24
2023-01-30T11:25:33.087Z,1000.28
2023-01-30T11:26:45.631Z,1000.34
2023-01-30T11:27:33.100Z,1000.17
2023-01-30T11:28:33.097Z,1000.18
2023-01-30T11:29:33.078Z,1000.23
2023-01-30T11:30:33.061Z,1000.37
2023-01-30T11:31:41.299Z,1000.29
2023-01-30T11:32:33.099Z,1000.32
2023-01-30T11:33:33.060Z,1000.26
2023-01-30T11:34:33.059Z,1000.18
2023-01-30T11:35:33.048Z,1000.27
2023-01-30T11:36:33.039Z,1000.27
2023-01-30T11:37:33.078Z,1000.00
2023-01-30T11:38:33.033Z,1000.05
2023-01-30T11:39:33.029Z,1000.08
2023-01-30T11:40:33.013Z,999.89
2023-01-30T11:41:33.023Z,999.99
2023-01-30T11:42:33.011Z,999.89
2023-01-30T11:43:33.010Z,999.94
2023-01-30T11:44:33.033Z,999.95
2023-01-30T11:45:33.021Z,999.91
2023-01-30T11:46:33.004Z,999.99
2023-01-30T11:47:33.015Z,999.91
2023-01-30T11:49:09.128Z,999.94
2023-01-30T11:49:45.997Z,999.89
2023-01-30T11:50:37.004Z,999.93
2023-01-30T11:51:33.141Z,999.88
2023-01-30T11:52:32.969Z,999.83
2023-01-30T11:53:32.990Z,999.99
2023-01-30T11:54:32.969Z,999.97
2023-01-30T11:55:32.956Z,999.85
2023-01-30T11:56:32.958Z,999.86
2023-01-30T11:57:32.949Z,999.89
2023-01-30T11:58:32.942Z,999.79
2023-01-30T11:59:32.945Z,999.82
2023-01-30T12:00:32.957Z,999.83
2023-01-30T12:01:32.948Z,999.78
2023-01-30T12:02:32.945Z,999.78
2023-01-30T12:03:33.012Z,999.71
2023-01-30T12:04:32.933Z,999.67
2023-01-30T12:05:32.923Z,999.69
2023-01-30T12:06:32.938Z,999.64